createdAt,value
2023-05-17T00:01:58.595Z,69.14
2023-05-17T00:05:00.030Z,68.86
2023-05-17T00:08:01.521Z,68.45
2023-05-17T00:11:02.941Z,68.17
2023-05-17T00:14:04.493Z,67.92
2023-05-17T00:17:06.087Z,68.55
2023-05-17T00:20:07.999Z,68.63
2023-05-17T00:23:09.466Z,68.36
2023-05-17T00:26:10.896Z,68.33
2023-05-17T00:29:12.315Z,67.97
2023-05-17T00:32:13.882Z,68.30
2023-05-17T00:35:15.506Z,69.05
2023-05-17T00:38:16.996Z,69.24
2023-05-17T00:41:18.487Z,69.45
2023-05-17T00:44:20.799Z,69.97
2023-05-17T00:47:22.308Z,70.78
2023-05-17T00:50:26.045Z,71.36
2023-05-17T00:53:28.660Z,72.21
2023-05-17T00:56:31.631Z,72.75
2023-05-17T00:59:33.876Z,73.16
2023-05-17T01:02:36.619Z,73.30
2023-05-17T01:05:38.556Z,73.16
2023-05-17T01:08:39.990Z,73.24
2023-05-17T01:12:00.377Z,73.38
2023-05-17T01:15:31.541Z,73.54
2023-05-17T01:18:46.690Z,73.77
2023-05-17T01:22:07.713Z,74.57
2023-05-17T01:26:04.444Z,74.70
2023-05-17T01:29:09.260Z,76.56
2023-05-17T01:32:12.812Z,78.09
2023-05-17T01:35:16.200Z,78.09
2023-05-17T01:38:17.745Z,77.47
2023-05-17T01:41:26.633Z,77.18
2023-05-17T01:44:43.649Z,76.76
2023-05-17T01:48:15.307Z,78.51
2023-05-17T01:51:19.839Z,78.26
2023-05-17T01:54:23.681Z,77.94
2023-05-17T01:57:29.614Z,78.71
2023-05-17T02:00:31.645Z,78.36
2023-05-17T02:03:33.072Z,77.79
2023-05-17T02:06:34.508Z,77.64
2023-05-17T02:09:35.977Z,78.09
2023-05-17T02:12:37.402Z,78.52
2023-05-17T02:15:38.962Z,79.56
2023-05-17T02:18:41.296Z,79.86
2023-05-17T02:21:42.776Z,80.04
2023-05-17T02:24:44.327Z,79.66
2023-05-17T02:27:46.695Z,80.49
2023-05-17T02:30:48.154Z,80.79
2023-05-17T02:33:49.627Z,81.19
2023-05-17T02:36:52.327Z,80.80
2023-05-17T02:39:53.751Z,80.88
2023-05-17T02:42:55.214Z,82.14
2023-05-17T02:45:56.641Z,82.15
2023-05-17T02:48:58.065Z,81.48
2023-05-17T02:52:00.745Z,80.58
2023-05-17T02:55:02.536Z,81.08
2023-05-17T02:58:04.455Z,81.63
2023-05-17T03:01:06.780Z,81.81
2023-05-17T03:04:08.778Z,82.91
2023-05-17T03:07:11.491Z,82.40
2023-05-17T03:10:14.030Z,83.19
2023-05-17T03:13:19.120Z,82.94
2023-05-17T03:16:20.781Z,82.91
2023-05-17T03:19:24.278Z,82.48
2023-05-17T03:22:27.091Z,82.24
2023-05-17T03:25:30.510Z,82.33
2023-05-17T03:28:32.205Z,82.88
2023-05-17T03:31:34.557Z,83.26
2023-05-17T03:34:37.119Z,85.00
2023-05-17T03:37:38.569Z,84.81
2023-05-17T03:40:41.310Z,85.29
2023-05-17T03:43:42.815Z,84.93
2023-05-17T03:46:46.700Z,84.56
2023-05-17T03:49:50.656Z,85.79
2023-05-17T03:52:52.961Z,84.96
2023-05-17T03:55:54.402Z,85.96
2023-05-17T03:58:56.305Z,86.54
2023-05-17T04:01:58.222Z,86.03
2023-05-17T04:04:59.695Z,86.71
2023-05-17T04:08:01.373Z,87.63
2023-05-17T04:11:13.876Z,88.58
2023-05-17T04:14:17.697Z,87.89
2023-05-17T04:17:19.737Z,87.54
2023-05-17T04:20:22.901Z,88.31
2023-05-17T04:23:24.580Z,87.39
2023-05-17T04:26:26.811Z,87.41
2023-05-17T04:29:28.288Z,88.68
2023-05-17T04:32:30.050Z,87.03
2023-05-17T04:35:32.667Z,86.27
2023-05-17T04:38:34.380Z,85.72
2023-05-17T04:41:36.249Z,87.73
2023-05-17T04:44:40.098Z,87.52
2023-05-17T04:47:44.613Z,88.98
2023-05-17T04:50:47.169Z,90.52
2023-05-17T04:53:50.251Z,90.07
2023-05-17T04:56:52.983Z,89.11
2023-05-17T05:00:15.537Z,89.91
2023-05-17T05:03:20.012Z,89.49
2023-05-17T05:06:22.247Z,89.13
2023-05-17T05:09:23.967Z,88.06
2023-05-17T05:12:26.142Z,87.65
2023-05-17T05:15:28.283Z,87.68
2023-05-17T05:18:34.068Z,87.97
2023-05-17T05:21:35.886Z,89.04
2023-05-17T05:24:38.026Z,88.69
2023-05-17T05:27:39.614Z,88.89
2023-05-17T05:30:41.579Z,89.66
2023-05-17T05:33:43.502Z,88.96
2023-05-17T05:36:45.532Z,89.61
2023-05-17T05:39:47.109Z,88.29
2023-05-17T05:42:48.572Z,88.58
2023-05-17T05:45:50.306Z,87.55
2023-05-17T05:48:51.996Z,86.94
2023-05-17T05:51:53.977Z,86.12
2023-05-17T05:54:55.767Z,86.67
2023-05-17T05:57:57.521Z,86.65
2023-05-17T06:00:59.950Z,86.84
2023-05-17T06:04:01.388Z,85.74
2023-05-17T06:07:02.904Z,85.91
2023-05-17T06:10:04.532Z,86.10
2023-05-17T06:13:06.113Z,85.62
2023-05-17T06:16:07.587Z,85.04
2023-05-17T06:19:09.076Z,84.05
2023-05-17T06:22:10.547Z,83.28
2023-05-17T06:25:12.040Z,82.20
2023-05-17T06:28:13.470Z,81.38
2023-05-17T06:31:14.922Z,79.67
2023-05-17T06:34:16.405Z,78.88
2023-05-17T06:37:18.149Z,76.38
2023-05-17T06:40:19.731Z,76.13
2023-05-17T06:43:21.887Z,74.37
2023-05-17T06:46:23.384Z,75.25
2023-05-17T06:49:24.839Z,75.73
2023-05-17T06:52:26.261Z,76.55
2023-05-17T06:55:29.013Z,76.34
2023-05-17T06:58:32.572Z,75.89
2023-05-17T07:01:34.643Z,74.19
2023-05-17T07:04:36.621Z,73.23
2023-05-17T07:07:38.218Z,69.69
2023-05-17T07:10:42.806Z,69.69
2023-05-17T07:13:44.268Z,68.62
2023-05-17T07:16:45.904Z,68.95
2023-05-17T07:19:50.867Z,68.06
2023-05-17T07:22:52.529Z,67.84
2023-05-17T07:25:54.000Z,69.15
2023-05-17T07:28:55.473Z,71.97
2023-05-17T07:31:57.156Z,73.58
2023-05-17T07:34:58.790Z,70.89
2023-05-17T07:38:00.236Z,71.88
2023-05-17T07:41:02.110Z,72.84
2023-05-17T07:44:03.545Z,68.64
2023-05-17T07:47:05.286Z,68.79
2023-05-17T07:50:07.539Z,68.03
2023-05-17T07:53:08.966Z,68.83
2023-05-17T07:56:10.456Z,67.46
2023-05-17T07:59:11.870Z,65.92
2023-05-17T08:02:13.398Z,64.99
2023-05-17T08:05:14.897Z,63.50
2023-05-17T08:08:16.318Z,63.00
2023-05-17T08:11:18.279Z,63.62
2023-05-17T08:14:23.461Z,63.18
2023-05-17T08:17:24.989Z,64.11
2023-05-17T08:20:26.509Z,64.68
2023-05-17T08:23:27.947Z,64.00
2023-05-17T08:26:29.517Z,64.21
2023-05-17T08:29:31.009Z,64.58
2023-05-17T08:32:32.690Z,64.15
2023-05-17T08:35:34.313Z,65.13
2023-05-17T08:38:35.911Z,64.42
2023-05-17T08:41:37.385Z,64.23
2023-05-17T08:44:38.946Z,62.58
2023-05-17T08:47:43.060Z,61.80
2023-05-17T08:50:46.656Z,64.28
2023-05-17T08:53:50.403Z,64.88
2023-05-17T08:57:00.150Z,64.62
2023-05-17T09:00:01.782Z,62.55
2023-05-17T09:03:03.382Z,62.33
2023-05-17T09:06:05.573Z,63.12
2023-05-17T09:09:07.468Z,62.21
2023-05-17T09:12:09.061Z,62.31
2023-05-17T09:15:15.124Z,63.49
2023-05-17T09:18:19.416Z,63.68
2023-05-17T09:21:22.770Z,61.07
2023-05-17T09:24:30.198Z,60.44
2023-05-17T09:27:32.337Z,58.98
2023-05-17T09:30:37.997Z,58.61
2023-05-17T09:33:46.842Z,58.09
2023-05-17T09:36:48.406Z,57.77
2023-05-17T09:39:49.882Z,56.45
2023-05-17T09:42:51.650Z,54.17
2023-05-17T09:45:59.691Z,54.16
2023-05-17T09:49:03.012Z,54.34
2023-05-17T09:52:08.262Z,53.41
2023-05-17T09:55:11.683Z,52.56
2023-05-17T09:58:13.892Z,51.18
2023-05-17T10:01:16.502Z,53.08
2023-05-17T10:04:23.104Z,51.40
2023-05-17T10:07:26.483Z,50.95
2023-05-17T10:10:29.930Z,50.07
2023-05-17T10:13:35.988Z,48.65
2023-05-17T10:16:38.505Z,48.94
2023-05-17T10:19:40.645Z,48.21
2023-05-17T10:22:42.585Z,48.31
2023-05-17T10:25:44.716Z,49.42
2023-05-17T10:28:47.888Z,51.30
2023-05-17T10:31:52.669Z,49.47
2023-05-17T10:35:06.567Z,48.87
2023-05-17T10:38:13.556Z,50.97
2023-05-17T10:41:18.199Z,50.61
2023-05-17T10:44:19.933Z,50.93
2023-05-17T10:47:22.242Z,50.96
2023-05-17T10:50:26.208Z,50.53
2023-05-17T10:53:27.883Z,49.33
2023-05-17T10:56:33.353Z,49.52
2023-05-17T10:59:35.607Z,48.63
2023-05-17T11:02:42.402Z,49.45
2023-05-17T11:06:03.733Z,49.37
2023-05-17T11:09:16.423Z,49.54
2023-05-17T11:12:53.855Z,48.43
2023-05-17T11:16:07.774Z,49.43
2023-05-17T11:19:11.973Z,50.07
2023-05-17T11:22:16.251Z,50.37
2023-05-17T11:25:19.101Z,50.26
2023-05-17T11:28:22.307Z,50.28
2023-05-17T11:31:32.021Z,50.57
2023-05-17T11:34:33.834Z,49.67
2023-05-17T11:37:35.545Z,50.75
2023-05-17T11:40:37.697Z,50.82
2023-05-17T11:43:46.336Z,50.89
2023-05-17T11:46:48.138Z,51.35
2023-05-17T11:49:53.696Z,51.27
2023-05-17T11:52:58.248Z,50.98
2023-05-17T11:56:04.255Z,49.95
2023-05-17T11:59:05.806Z,49.62
2023-05-17T12:02:07.491Z,48.01
2023-05-17T12:05:09.338Z,47.62
2023-05-17T12:08:11.730Z,46.62
2023-05-17T12:11:17.409Z,46.18
2023-05-17T12:14:20.234Z,45.43
2023-05-17T12:17:28.864Z,45.09
2023-05-17T12:20:33.135Z,44.92
2023-05-17T12:23:41.027Z,44.19
2023-05-17T12:26:46.807Z,43.62
2023-05-17T12:29:48.230Z,42.01
2023-05-17T12:32:49.978Z,41.97
2023-05-17T12:35:51.919Z,41.89
2023-05-17T12:38:53.824Z,43.43
2023-05-17T12:41:55.401Z,45.07
2023-05-17T12:44:59.444Z,46.18
2023-05-17T12:48:00.944Z,45.44
2023-05-17T12:51:14.036Z,45.38
2023-05-17T12:54:26.686Z,44.97
2023-05-17T12:57:28.101Z,44.58
2023-05-17T13:00:29.798Z,44.88
2023-05-17T13:03:31.927Z,44.44
2023-05-17T13:06:54.119Z,43.29
2023-05-17T13:09:55.760Z,43.19
2023-05-17T13:12:58.489Z,42.34
2023-05-17T13:15:59.936Z,41.38
2023-05-17T13:19:01.515Z,41.65
2023-05-17T13:22:04.179Z,40.57
2023-05-17T13:25:06.390Z,38.73
2023-05-17T13:28:07.791Z,39.25
2023-05-17T13:31:09.289Z,39.17
2023-05-17T13:34:11.319Z,40.98
2023-05-17T13:37:13.115Z,40.41
2023-05-17T13:40:15.053Z,41.02
2023-05-17T13:43:16.624Z,39.98
2023-05-17T13:46:18.033Z,39.86
2023-05-17T13:49:19.575Z,39.52
2023-05-17T13:52:22.941Z,39.08
2023-05-17T13:55:24.752Z,39.95
2023-05-17T13:58:26.643Z,39.71
2023-05-17T14:01:28.105Z,40.62
2023-05-17T14:04:29.565Z,40.80
2023-05-17T14:07:30.999Z,40.55
2023-05-17T14:10:32.603Z,39.43
2023-05-17T14:13:34.011Z,39.33
2023-05-17T14:16:35.999Z,39.01
2023-05-17T14:19:37.613Z,39.30
2023-05-17T14:22:39.082Z,39.27
2023-05-17T14:25:43.593Z,39.32
2023-05-17T14:28:45.008Z,39.00
2023-05-17T14:31:46.590Z,40.23
2023-05-17T14:34:48.116Z,39.29
2023-05-17T14:37:49.560Z,38.91
2023-05-17T14:40:51.025Z,38.08
2023-05-17T14:46:54.173Z,38.90
2023-05-17T14:49:55.706Z,38.28
2023-05-17T14:52:57.114Z,39.12
2023-05-17T14:56:01.865Z,40.14
2023-05-17T14:59:03.341Z,38.87
2023-05-17T15:02:05.222Z,37.86
2023-05-17T15:05:07.167Z,37.79
2023-05-17T15:08:08.799Z,37.48
2023-05-17T15:11:10.675Z,37.01
2023-05-17T15:14:12.397Z,37.12
2023-05-17T15:17:13.827Z,36.71
2023-05-17T15:20:15.620Z,37.58
2023-05-17T15:23:17.156Z,37.40
2023-05-17T15:26:18.635Z,37.32
2023-05-17T15:29:20.119Z,37.69
2023-05-17T15:32:21.605Z,36.93
2023-05-17T15:35:23.157Z,37.06
2023-05-17T15:38:24.577Z,36.91
2023-05-17T15:41:29.804Z,36.66
2023-05-17T15:44:31.652Z,36.82
2023-05-17T15:50:38.113Z,37.84
2023-05-17T15:53:39.558Z,36.53
2023-05-17T15:56:41.926Z,36.11
2023-05-17T15:59:43.498Z,35.83
2023-05-17T16:02:44.982Z,35.03
2023-05-17T16:05:46.507Z,35.38
2023-05-17T16:08:47.995Z,35.97
2023-05-17T16:11:49.422Z,35.94
2023-05-17T16:14:50.852Z,36.46
2023-05-17T16:17:52.436Z,36.27
2023-05-17T16:20:58.593Z,35.45
2023-05-17T16:23:59.993Z,35.02
2023-05-17T16:27:03.169Z,35.86
2023-05-17T16:30:06.673Z,36.44
2023-05-17T16:33:09.135Z,35.60
2023-05-17T16:36:12.278Z,35.30
2023-05-17T16:39:13.831Z,35.86
2023-05-17T16:42:15.530Z,36.00
2023-05-17T16:45:16.965Z,35.84
2023-05-17T16:48:18.427Z,35.20
2023-05-17T16:51:19.871Z,35.28
2023-05-17T16:54:21.293Z,35.10
2023-05-17T16:57:22.715Z,34.63
2023-05-17T17:00:24.271Z,34.67
2023-05-17T17:03:25.936Z,34.31
2023-05-17T17:06:27.560Z,34.77
2023-05-17T17:09:29.018Z,34.39
2023-05-17T17:12:30.439Z,34.74
2023-05-17T17:15:32.178Z,34.18
2023-05-17T17:18:33.879Z,34.18
2023-05-17T17:21:39.162Z,34.39
2023-05-17T17:24:40.974Z,34.42
2023-05-17T17:27:42.464Z,34.34
2023-05-17T17:30:43.929Z,34.79
2023-05-17T17:33:45.496Z,35.10
2023-05-17T17:36:46.965Z,35.98
2023-05-17T17:39:48.476Z,36.01
2023-05-17T17:42:49.962Z,36.67
2023-05-17T17:45:51.431Z,36.33
2023-05-17T17:48:54.425Z,35.84
2023-05-17T17:51:58.171Z,36.07
2023-05-17T17:54:59.658Z,35.95
2023-05-17T17:58:01.184Z,35.68
2023-05-17T18:01:03.447Z,35.91
2023-05-17T18:04:05.572Z,35.64
2023-05-17T18:07:07.194Z,36.33
2023-05-17T18:10:09.040Z,36.61
2023-05-17T18:13:10.627Z,35.80
2023-05-17T18:16:12.770Z,36.52
2023-05-17T18:19:14.375Z,36.84
2023-05-17T18:22:20.896Z,36.89
2023-05-17T18:25:23.289Z,36.60
2023-05-17T18:28:38.272Z,37.28
2023-05-17T18:31:43.931Z,37.54
2023-05-17T18:34:45.651Z,38.48
2023-05-17T18:37:47.154Z,38.55
2023-05-17T18:40:49.080Z,38.42
2023-05-17T18:43:51.588Z,38.67
2023-05-17T18:46:54.195Z,39.24
2023-05-17T18:49:55.823Z,39.78
2023-05-17T18:52:57.387Z,40.35
2023-05-17T18:56:02.531Z,40.90
2023-05-17T18:59:04.976Z,41.15
2023-05-17T19:02:07.125Z,41.99
2023-05-17T19:05:08.821Z,42.46
2023-05-17T19:08:10.461Z,42.86
2023-05-17T19:11:11.887Z,43.01
2023-05-17T19:14:14.712Z,43.48
2023-05-17T19:17:17.446Z,43.56
2023-05-17T19:20:19.218Z,43.68
2023-05-17T19:23:21.526Z,43.76
2023-05-17T19:26:22.980Z,44.19
2023-05-17T19:29:27.123Z,44.50
2023-05-17T19:32:30.168Z,44.15
2023-05-17T19:35:31.706Z,44.05
2023-05-17T19:38:33.288Z,44.31
2023-05-17T19:41:34.967Z,44.79
2023-05-17T19:44:36.435Z,45.30
2023-05-17T19:47:38.957Z,46.14
2023-05-17T19:50:43.953Z,46.45
2023-05-17T19:53:53.072Z,46.82
2023-05-17T19:56:56.206Z,47.30
2023-05-17T19:59:57.653Z,47.20
2023-05-17T20:02:59.400Z,47.21
2023-05-17T20:06:01.017Z,47.57
2023-05-17T20:09:02.476Z,48.05
2023-05-17T20:12:04.400Z,48.02
2023-05-17T20:15:06.727Z,47.97
2023-05-17T20:18:09.188Z,47.91
2023-05-17T20:21:15.083Z,47.45
2023-05-17T20:24:16.674Z,47.47
2023-05-17T20:27:18.312Z,47.56
2023-05-17T20:30:19.802Z,48.23
2023-05-17T20:33:26.287Z,47.99
2023-05-17T20:36:27.754Z,48.54
2023-05-17T20:39:30.766Z,48.54
2023-05-17T20:42:32.562Z,48.66
2023-05-17T20:45:34.151Z,48.03
2023-05-17T20:48:36.333Z,48.24
2023-05-17T20:51:37.927Z,48.38
2023-05-17T20:54:39.359Z,48.47
2023-05-17T20:57:41.832Z,47.93
2023-05-17T21:00:43.361Z,47.59
2023-05-17T21:03:45.843Z,46.47
2023-05-17T21:06:47.525Z,46.56
2023-05-17T21:09:48.996Z,46.88
2023-05-17T21:12:51.306Z,46.73
2023-05-17T21:15:54.113Z,46.64
2023-05-17T21:18:55.663Z,47.61
2023-05-17T21:21:57.140Z,48.44
2023-05-17T21:24:58.569Z,48.69
2023-05-17T21:27:59.995Z,49.42
2023-05-17T21:31:01.727Z,49.01
2023-05-17T21:34:03.919Z,49.13
2023-05-17T21:37:05.533Z,49.18
2023-05-17T21:40:08.073Z,49.97
2023-05-17T21:43:12.271Z,50.13
2023-05-17T21:46:13.714Z,49.68
2023-05-17T21:49:15.389Z,49.96
2023-05-17T21:52:17.384Z,50.34
2023-05-17T21:55:18.806Z,50.46
2023-05-17T21:58:21.226Z,50.50
2023-05-17T22:01:24.037Z,50.31
2023-05-17T22:04:26.215Z,50.19
2023-05-17T22:07:27.693Z,50.51
2023-05-17T22:10:30.524Z,50.35
2023-05-17T22:13:32.564Z,50.20
2023-05-17T22:16:35.770Z,50.67
2023-05-17T22:19:40.301Z,50.73
2023-05-17T22:22:41.855Z,50.73
2023-05-17T22:25:43.468Z,50.42
2023-05-17T22:28:45.122Z,50.90
2023-05-17T22:31:47.282Z,49.56
2023-05-17T22:34:49.805Z,48.92
2023-05-17T22:37:51.867Z,48.41
2023-05-17T22:40:53.316Z,48.90
2023-05-17T22:43:54.744Z,48.92
2023-05-17T22:46:57.664Z,48.91
2023-05-17T22:50:00.626Z,48.67
2023-05-17T22:53:02.072Z,48.42
2023-05-17T22:56:03.637Z,48.36
2023-05-17T22:59:05.054Z,48.52
2023-05-17T23:02:06.694Z,48.60
2023-05-17T23:05:08.601Z,48.72
2023-05-17T23:08:10.035Z,48.76
2023-05-17T23:11:11.469Z,48.69
2023-05-17T23:14:13.934Z,49.02
2023-05-17T23:17:15.620Z,49.04
2023-05-17T23:20:17.318Z,49.25
2023-05-17T23:23:19.180Z,48.95
2023-05-17T23:26:22.002Z,49.11
2023-05-17T23:29:23.883Z,49.19
2023-05-17T23:32:25.429Z,49.00
2023-05-17T23:35:26.959Z,49.20
2023-05-17T23:38:28.597Z,49.40
2023-05-17T23:41:30.510Z,48.98
2023-05-17T23:44:33.313Z,48.65
2023-05-17T23:47:34.875Z,48.99
2023-05-17T23:50:37.063Z,49.09
2023-05-17T23:53:38.463Z,49.00
2023-05-17T23:56:39.896Z,49.11
2023-05-17T23:59:41.998Z,49.07
